KRAP/RAP METAR and TAF weather

Enter ICAO airport designator
Station Type Date Time Source
KRAP METAR 2020/09/18 06:52 UTC NOAA

KRAP 180652Z AUTO 27003KT 10SM CLR 07/05 A3028 RMK AO2 SLP248 T00670050 402280067


Station Type Date Time Source
KRAP Decoded METAR 2020/09/18 06:52 UTC NOAA

RAPID CITY REGIONAL AIRPORT , SD, United States (KRAP) 44-03N 103-03W 965M
Sep 18, 2020 - 02:52 AM EDT / 2020.09.18 0652 UTC
Wind: from the W (270 degrees) at 3 MPH (3 KT):0
Visibility: 10 mile(s):0
Sky conditions: clear
Temperature: 44.1 F (6.7 C)
Dew Point: 41.0 F (5.0 C)
Relative Humidity: 88%
Pressure (altimeter): 30.28 in. Hg (1025 hPa)
ob: KRAP 180652Z AUTO 27003KT 10SM CLR 07/05 A3028 RMK AO2 SLP248 T00670050 402280067
cycle: 7

Station Type Date Time Source
KRAP TAF 2020/09/18 06:22 UTC NOAA

TAF KRAP 180520Z 1806/1906 VRB04KT P6SM SKC
FM181000 16008KT P6SM SKC
FM181600 16015KT P6SM SKC
FM190000 10011KT P6SM SKC

Example: see airport list